sensor_id;sensor_type;location;lat;lon;timestamp;pressure;altitude;pressure_sealevel;temperature;humidity
80648;BME280;70012;0.000;0.000;2024-01-10T00:00:40;101931.84;;;-7.55;72.04
80648;BME280;70012;0.000;0.000;2024-01-10T00:03:07;101931.19;;;-7.59;73.07
80648;BME280;70012;0.000;0.000;2024-01-10T00:05:34;101930.31;;;-7.59;72.99
80648;BME280;70012;0.000;0.000;2024-01-10T00:08:00;101933.06;;;-7.61;73.30
80648;BME280;70012;0.000;0.000;2024-01-10T00:10:27;101931.66;;;-7.66;73.67
80648;BME280;70012;0.000;0.000;2024-01-10T00:12:54;101912.28;;;-7.68;72.98
80648;BME280;70012;0.000;0.000;2024-01-10T00:15:20;101912.19;;;-7.67;73.01
80648;BME280;70012;0.000;0.000;2024-01-10T00:17:47;101914.72;;;-7.65;72.60
80648;BME280;70012;0.000;0.000;2024-01-10T00:20:14;101912.06;;;-7.65;73.23
80648;BME280;70012;0.000;0.000;2024-01-10T00:22:41;101911.50;;;-7.70;73.18
80648;BME280;70012;0.000;0.000;2024-01-10T00:25:08;101915.88;;;-7.69;73.85
80648;BME280;70012;0.000;0.000;2024-01-10T00:27:35;101899.75;;;-7.81;73.54
80648;BME280;70012;0.000;0.000;2024-01-10T00:30:02;101900.88;;;-7.85;72.56
80648;BME280;70012;0.000;0.000;2024-01-10T00:32:29;101901.66;;;-7.83;72.36
80648;BME280;70012;0.000;0.000;2024-01-10T00:34:57;101901.09;;;-7.74;72.33
80648;BME280;70012;0.000;0.000;2024-01-10T00:37:24;101899.94;;;-7.84;73.27
80648;BME280;70012;0.000;0.000;2024-01-10T00:39:50;101874.31;;;-7.99;72.64
80648;BME280;70012;0.000;0.000;2024-01-10T00:42:17;101856.81;;;-8.04;72.35
80648;BME280;70012;0.000;0.000;2024-01-10T00:44:44;101867.84;;;-7.95;72.47
80648;BME280;70012;0.000;0.000;2024-01-10T00:47:11;101889.13;;;-7.81;71.98
80648;BME280;70012;0.000;0.000;2024-01-10T00:49:39;101890.44;;;-7.74;71.72
80648;BME280;70012;0.000;0.000;2024-01-10T00:52:05;101862.41;;;-7.94;71.83
80648;BME280;70012;0.000;0.000;2024-01-10T00:54:32;101880.38;;;-7.83;72.00
80648;BME280;70012;0.000;0.000;2024-01-10T00:56:59;101859.31;;;-8.00;71.90
80648;BME280;70012;0.000;0.000;2024-01-10T00:59:25;101883.31;;;-7.88;72.08
80648;BME280;70012;0.000;0.000;2024-01-10T01:01:52;101858.72;;;-8.06;71.75
80648;BME280;70012;0.000;0.000;2024-01-10T01:04:19;101864.03;;;-8.06;71.73
80648;BME280;70012;0.000;0.000;2024-01-10T01:06:46;101877.72;;;-7.97;72.03
80648;BME280;70012;0.000;0.000;2024-01-10T01:09:12;101830.63;;;-8.24;71.92
80648;BME280;70012;0.000;0.000;2024-01-10T01:11:41;101836.72;;;-8.22;71.85
80648;BME280;70012;0.000;0.000;2024-01-10T01:14:08;101864.03;;;-8.06;72.72
80648;BME280;70012;0.000;0.000;2024-01-10T01:16:35;101882.19;;;-7.98;72.82
80648;BME280;70012;0.000;0.000;2024-01-10T01:19:02;101882.66;;;-7.91;73.44
80648;BME280;70012;0.000;0.000;2024-01-10T01:21:29;101889.97;;;-7.95;73.33
80648;BME280;70012;0.000;0.000;2024-01-10T01:23:55;101879.63;;;-7.99;73.23
80648;BME280;70012;0.000;0.000;2024-01-10T01:26:22;101883.41;;;-8.04;73.40
80648;BME280;70012;0.000;0.000;2024-01-10T01:28:49;101887.00;;;-8.05;73.31
80648;BME280;70012;0.000;0.000;2024-01-10T01:31:16;101884.72;;;-8.11;73.89
80648;BME280;70012;0.000;0.000;2024-01-10T01:33:42;101892.31;;;-8.05;73.34
80648;BME280;70012;0.000;0.000;2024-01-10T01:36:09;101889.78;;;-8.06;73.16
80648;BME280;70012;0.000;0.000;2024-01-10T01:38:36;101880.34;;;-8.12;73.61
80648;BME280;70012;0.000;0.000;2024-01-10T01:41:02;101873.53;;;-8.16;73.48
80648;BME280;70012;0.000;0.000;2024-01-10T01:43:29;101872.75;;;-8.18;73.67
80648;BME280;70012;0.000;0.000;2024-01-10T01:45:56;101884.94;;;-8.14;73.05
80648;BME280;70012;0.000;0.000;2024-01-10T01:48:24;101885.66;;;-8.12;73.37
80648;BME280;70012;0.000;0.000;2024-01-10T01:50:57;101863.06;;;-8.19;73.10
80648;BME280;70012;0.000;0.000;2024-01-10T01:53:25;101876.75;;;-8.11;72.91
80648;BME280;70012;0.000;0.000;2024-01-10T01:55:53;101877.81;;;-8.13;73.16
80648;BME280;70012;0.000;0.000;2024-01-10T01:58:20;101880.19;;;-8.09;72.77
80648;BME280;70012;0.000;0.000;2024-01-10T02:00:47;101873.16;;;-8.10;72.86
80648;BME280;70012;0.000;0.000;2024-01-10T02:03:13;101874.50;;;-8.02;73.26
80648;BME280;70012;0.000;0.000;2024-01-10T02:05:40;101863.56;;;-8.12;73.46
80648;BME280;70012;0.000;0.000;2024-01-10T02:08:08;101871.25;;;-8.08;72.94
80648;BME280;70012;0.000;0.000;2024-01-10T02:10:35;101870.22;;;-8.05;73.18
80648;BME280;70012;0.000;0.000;2024-01-10T02:13:01;101870.22;;;-8.05;72.97
80648;BME280;70012;0.000;0.000;2024-01-10T02:15:28;101872.97;;;-8.07;73.18
80648;BME280;70012;0.000;0.000;2024-01-10T02:17:55;101869.56;;;-8.09;73.65
80648;BME280;70012;0.000;0.000;2024-01-10T02:20:22;101864.22;;;-8.09;73.29
80648;BME280;70012;0.000;0.000;2024-01-10T02:22:49;101870.31;;;-8.07;74.33
80648;BME280;70012;0.000;0.000;2024-01-10T02:25:17;101868.78;;;-8.11;74.25
80648;BME280;70012;0.000;0.000;2024-01-10T02:27:44;101858.03;;;-8.09;73.84
80648;BME280;70012;0.000;0.000;2024-01-10T02:30:10;101851.88;;;-8.10;73.74
80648;BME280;70012;0.000;0.000;2024-01-10T02:32:38;101850.38;;;-8.14;74.96
80648;BME280;70012;0.000;0.000;2024-01-10T02:35:05;101859.09;;;-8.12;73.58
80648;BME280;70012;0.000;0.000;2024-01-10T02:37:32;101865.94;;;-8.08;73.66
80648;BME280;70012;0.000;0.000;2024-01-10T02:39:59;101855.50;;;-8.11;73.38
80648;BME280;70012;0.000;0.000;2024-01-10T02:42:28;101862.63;;;-8.11;73.49
80648;BME280;70012;0.000;0.000;2024-01-10T02:44:56;101868.69;;;-8.09;74.23
80648;BME280;70012;0.000;0.000;2024-01-10T02:47:23;101839.47;;;-8.24;75.40
80648;BME280;70012;0.000;0.000;2024-01-10T02:49:50;101848.00;;;-8.18;74.90
80648;BME280;70012;0.000;0.000;2024-01-10T02:52:17;101850.94;;;-8.23;74.30
80648;BME280;70012;0.000;0.000;2024-01-10T02:54:46;101842.19;;;-8.25;75.09
80648;BME280;70012;0.000;0.000;2024-01-10T02:57:13;101862.63;;;-8.11;74.31
80648;BME280;70012;0.000;0.000;2024-01-10T02:59:40;101821.53;;;-8.34;73.83
80648;BME280;70012;0.000;0.000;2024-01-10T03:02:06;101839.47;;;-8.24;74.53
80648;BME280;70012;0.000;0.000;2024-01-10T03:04:33;101842.13;;;-8.24;74.63
80648;BME280;70012;0.000;0.000;2024-01-10T03:07:00;101830.44;;;-8.36;75.22
80648;BME280;70012;0.000;0.000;2024-01-10T03:09:27;101813.91;;;-8.41;74.49
80648;BME280;70012;0.000;0.000;2024-01-10T03:11:53;101820.19;;;-8.42;74.61
80648;BME280;70012;0.000;0.000;2024-01-10T03:14:20;101818.28;;;-8.40;73.80
80648;BME280;70012;0.000;0.000;2024-01-10T03:16:47;101825.13;;;-8.36;73.30
80648;BME280;70012;0.000;0.000;2024-01-10T03:19:14;101851.72;;;-8.21;73.21
80648;BME280;70012;0.000;0.000;2024-01-10T03:21:40;101848.09;;;-8.20;73.58
80648;BME280;70012;0.000;0.000;2024-01-10T03:24:07;101852.28;;;-8.16;73.09
80648;BME280;70012;0.000;0.000;2024-01-10T03:26:34;101838.03;;;-8.15;72.99
80648;BME280;70012;0.000;0.000;2024-01-10T03:29:01;101849.50;;;-8.14;72.64
80648;BME280;70012;0.000;0.000;2024-01-10T03:31:29;101839.94;;;-8.17;72.42
80648;BME280;70012;0.000;0.000;2024-01-10T03:33:57;101841.81;;;-8.19;73.21
80648;BME280;70012;0.000;0.000;2024-01-10T03:36:25;101840.13;;;-8.20;72.59
80648;BME280;70012;0.000;0.000;2024-01-10T03:38:51;101839.38;;;-8.22;72.56
80648;BME280;70012;0.000;0.000;2024-01-10T03:41:19;101833.09;;;-8.21;72.65
80648;BME280;70012;0.000;0.000;2024-01-10T03:43:46;101826.44;;;-8.28;73.20
80648;BME280;70012;0.000;0.000;2024-01-10T03:46:13;101832.53;;;-8.26;73.27
80648;BME280;70012;0.000;0.000;2024-01-10T03:48:40;101823.78;;;-8.28;74.03
80648;BME280;70012;0.000;0.000;2024-01-10T03:51:18;101835.38;;;-8.29;73.98
80648;BME280;70012;0.000;0.000;2024-01-10T03:53:45;101827.50;;;-8.31;73.36
80648;BME280;70012;0.000;0.000;2024-01-10T03:56:12;101831.94;;;-8.31;73.39
80648;BME280;70012;0.000;0.000;2024-01-10T03:58:39;101834.88;;;-8.36;74.74
80648;BME280;70012;0.000;0.000;2024-01-10T04:01:07;101841.72;;;-8.32;74.06
80648;BME280;70012;0.000;0.000;2024-01-10T04:03:35;101834.59;;;-8.31;74.06
80648;BME280;70012;0.000;0.000;2024-01-10T04:06:02;101826.72;;;-8.33;74.64
80648;BME280;70012;0.000;0.000;2024-01-10T04:08:29;101835.53;;;-8.32;74.44
80648;BME280;70012;0.000;0.000;2024-01-10T04:10:56;101829.66;;;-8.38;74.38
80648;BME280;70012;0.000;0.000;2024-01-10T04:13:22;101835.53;;;-8.32;74.20
80648;BME280;70012;0.000;0.000;2024-01-10T04:15:49;101827.41;;;-8.29;74.86
80648;BME280;70012;0.000;0.000;2024-01-10T04:18:15;101828.34;;;-8.30;74.89
80648;BME280;70012;0.000;0.000;2024-01-10T04:20:43;101828.34;;;-8.30;73.92
80648;BME280;70012;0.000;0.000;2024-01-10T04:23:10;101829.38;;;-8.33;73.53
80648;BME280;70012;0.000;0.000;2024-01-10T04:25:37;101830.59;;;-8.39;74.39
80648;BME280;70012;0.000;0.000;2024-01-10T04:28:04;101824.91;;;-8.32;74.11
80648;BME280;70012;0.000;0.000;2024-01-10T04:30:31;101830.91;;;-8.29;74.00
80648;BME280;70012;0.000;0.000;2024-01-10T04:32:58;101827.41;;;-8.29;73.79
80648;BME280;70012;0.000;0.000;2024-01-10T04:35:25;101816.94;;;-8.32;73.62
80648;BME280;70012;0.000;0.000;2024-01-10T04:37:52;101828.34;;;-8.30;73.65
80648;BME280;70012;0.000;0.000;2024-01-10T04:40:19;101825.59;;;-8.29;73.94
80648;BME280;70012;0.000;0.000;2024-01-10T04:42:45;101823.41;;;-8.37;75.47
80648;BME280;70012;0.000;0.000;2024-01-10T04:45:12;101815.28;;;-8.48;74.70
80648;BME280;70012;0.000;0.000;2024-01-10T04:47:39;101814.09;;;-8.44;74.02
80648;BME280;70012;0.000;0.000;2024-01-10T04:50:07;101818.28;;;-8.40;74.42
80648;BME280;70012;0.000;0.000;2024-01-10T04:52:39;101827.22;;;-8.41;73.76
80648;BME280;70012;0.000;0.000;2024-01-10T04:55:06;101830.59;;;-8.39;74.40
80648;BME280;70012;0.000;0.000;2024-01-10T04:57:34;101818.47;;;-8.43;73.56
80648;BME280;70012;0.000;0.000;2024-01-10T05:00:04;101821.97;;;-8.42;73.98
80648;BME280;70012;0.000;0.000;2024-01-10T05:02:31;101816.13;;;-8.47;73.83
80648;BME280;70012;0.000;0.000;2024-01-10T05:04:58;101825.03;;;-8.48;74.43
80648;BME280;70012;0.000;0.000;2024-01-10T05:07:26;101825.66;;;-8.45;74.72
80648;BME280;70012;0.000;0.000;2024-01-10T05:09:53;101822.47;;;-8.50;74.21
80648;BME280;70012;0.000;0.000;2024-01-10T05:12:20;101816.50;;;-8.54;74.84
80648;BME280;70012;0.000;0.000;2024-01-10T05:14:47;101792.00;;;-8.73;74.77
80648;BME280;70012;0.000;0.000;2024-01-10T05:17:13;101787.16;;;-8.81;74.68
80648;BME280;70012;0.000;0.000;2024-01-10T05:19:40;101824.06;;;-8.62;75.30
80648;BME280;70012;0.000;0.000;2024-01-10T05:22:07;101819.63;;;-8.61;75.54
80648;BME280;70012;0.000;0.000;2024-01-10T05:24:34;101835.19;;;-8.55;75.31
80648;BME280;70012;0.000;0.000;2024-01-10T05:27:02;101827.22;;;-8.55;75.11
80648;BME280;70012;0.000;0.000;2024-01-10T05:29:29;101806.09;;;-8.73;75.27
80648;BME280;70012;0.000;0.000;2024-01-10T05:31:56;101811.09;;;-8.66;75.71
80648;BME280;70012;0.000;0.000;2024-01-10T05:34:23;101823.00;;;-8.59;76.05
80648;BME280;70012;0.000;0.000;2024-01-10T05:36:49;101814.31;;;-8.61;76.03
80648;BME280;70012;0.000;0.000;2024-01-10T05:39:16;101819.63;;;-8.61;75.94
80648;BME280;70012;0.000;0.000;2024-01-10T05:41:43;101821.41;;;-8.62;74.93
80648;BME280;70012;0.000;0.000;2024-01-10T05:44:12;101821.50;;;-8.63;75.03
80648;BME280;70012;0.000;0.000;2024-01-10T05:46:39;101816.41;;;-8.66;75.34
80648;BME280;70012;0.000;0.000;2024-01-10T05:49:06;101813.13;;;-8.72;76.16
80648;BME280;70012;0.000;0.000;2024-01-10T05:51:33;101814.84;;;-8.71;74.95
80648;BME280;70012;0.000;0.000;2024-01-10T05:54:00;101816.56;;;-8.70;75.24
80648;BME280;70012;0.000;0.000;2024-01-10T05:56:27;101800.22;;;-8.78;75.67
80648;BME280;70012;0.000;0.000;2024-01-10T05:58:54;101802.34;;;-8.69;75.90
80648;BME280;70012;0.000;0.000;2024-01-10T06:01:21;101815.53;;;-8.67;75.67
80648;BME280;70012;0.000;0.000;2024-01-10T06:03:48;101812.97;;;-8.69;75.52
80648;BME280;70012;0.000;0.000;2024-01-10T06:06:14;101809.38;;;-8.67;75.97
80648;BME280;70012;0.000;0.000;2024-01-10T06:08:41;101807.66;;;-8.69;74.98
80648;BME280;70012;0.000;0.000;2024-01-10T06:11:08;101809.53;;;-8.71;76.41
80648;BME280;70012;0.000;0.000;2024-01-10T06:13:36;101806.31;;;-8.76;77.10
80648;BME280;70012;0.000;0.000;2024-01-10T06:16:19;101801.00;;;-8.76;75.14
80648;BME280;70012;0.000;0.000;2024-01-10T06:18:45;101798.63;;;-8.80;75.89
80648;BME280;70012;0.000;0.000;2024-01-10T06:21:12;101799.97;;;-8.73;76.34
80648;BME280;70012;0.000;0.000;2024-01-10T06:23:39;101781.66;;;-8.78;77.37
80648;BME280;70012;0.000;0.000;2024-01-10T06:26:06;101801.09;;;-8.63;77.59
80648;BME280;70012;0.000;0.000;2024-01-10T06:28:33;101791.16;;;-8.74;76.10
80648;BME280;70012;0.000;0.000;2024-01-10T06:30:59;101802.34;;;-8.69;76.10
80648;BME280;70012;0.000;0.000;2024-01-10T06:33:26;101782.00;;;-8.84;77.04
80648;BME280;70012;0.000;0.000;2024-01-10T06:35:53;101810.47;;;-8.72;76.34
80648;BME280;70012;0.000;0.000;2024-01-10T06:38:20;101816.66;;;-8.71;77.04
80648;BME280;70012;0.000;0.000;2024-01-10T06:40:49;101805.09;;;-8.70;76.88
80648;BME280;70012;0.000;0.000;2024-01-10T06:43:18;101791.13;;;-8.88;76.70
80648;BME280;70012;0.000;0.000;2024-01-10T06:45:45;101787.53;;;-8.87;77.53
80648;BME280;70012;0.000;0.000;2024-01-10T06:48:11;101790.66;;;-8.80;77.11
80648;BME280;70012;0.000;0.000;2024-01-10T06:50:39;101786.56;;;-8.86;77.96
80648;BME280;70012;0.000;0.000;2024-01-10T06:53:06;101801.00;;;-8.76;76.49
80648;BME280;70012;0.000;0.000;2024-01-10T06:55:33;101811.41;;;-8.73;76.59
80648;BME280;70012;0.000;0.000;2024-01-10T06:58:00;101778.94;;;-8.92;76.84
80648;BME280;70012;0.000;0.000;2024-01-10T07:00:26;101786.34;;;-8.97;76.42
80648;BME280;70012;0.000;0.000;2024-01-10T07:02:53;101795.66;;;-8.90;76.50
80648;BME280;70012;0.000;0.000;2024-01-10T07:05:20;101813.97;;;-8.86;76.69
80648;BME280;70012;0.000;0.000;2024-01-10T07:07:47;101807.22;;;-8.91;76.49
80648;BME280;70012;0.000;0.000;2024-01-10T07:10:21;101807.03;;;-8.88;76.47
80648;BME280;70012;0.000;0.000;2024-01-10T07:12:52;101795.25;;;-8.98;77.09
80648;BME280;70012;0.000;0.000;2024-01-10T07:15:19;101818.50;;;-8.88;77.39
80648;BME280;70012;0.000;0.000;2024-01-10T07:17:48;101797.16;;;-9.01;76.62
80648;BME280;70012;0.000;0.000;2024-01-10T07:20:15;101802.47;;;-9.01;77.36
80648;BME280;70012;0.000;0.000;2024-01-10T07:22:42;101818.56;;;-9.04;77.18
80648;BME280;70012;0.000;0.000;2024-01-10T07:25:11;101765.38;;;-9.33;77.17
80648;BME280;70012;0.000;0.000;2024-01-10T07:27:41;101814.75;;;-8.99;76.72
80648;BME280;70012;0.000;0.000;2024-01-10T07:30:09;101808.47;;;-9.13;77.24
80648;BME280;70012;0.000;0.000;2024-01-10T07:32:43;101836.59;;;-8.94;76.87
80648;BME280;70012;0.000;0.000;2024-01-10T07:35:12;101802.41;;;-9.15;76.07
80648;BME280;70012;0.000;0.000;2024-01-10T07:37:53;101781.13;;;-9.29;75.97
80648;BME280;70012;0.000;0.000;2024-01-10T07:40:21;101830.69;;;-8.99;76.25
80648;BME280;70012;0.000;0.000;2024-01-10T07:42:50;101825.56;;;-9.03;75.58
80648;BME280;70012;0.000;0.000;2024-01-10T07:45:17;101833.34;;;-8.99;75.69
80648;BME280;70012;0.000;0.000;2024-01-10T07:47:51;101829.84;;;-9.00;75.60
80648;BME280;70012;0.000;0.000;2024-01-10T07:50:19;101835.84;;;-8.96;75.54
80648;BME280;70012;0.000;0.000;2024-01-10T07:52:47;101827.28;;;-9.02;75.62
80648;BME280;70012;0.000;0.000;2024-01-10T07:55:14;101827.78;;;-8.95;75.33
80648;BME280;70012;0.000;0.000;2024-01-10T07:57:42;101835.56;;;-8.92;75.39
80648;BME280;70012;0.000;0.000;2024-01-10T08:00:09;101814.88;;;-9.01;74.71
80648;BME280;70012;0.000;0.000;2024-01-10T08:02:38;101834.63;;;-8.91;75.00
80648;BME280;70012;0.000;0.000;2024-01-10T08:05:06;101835.09;;;-8.84;74.92
80648;BME280;70012;0.000;0.000;2024-01-10T08:07:39;101841.19;;;-8.82;74.96
80648;BME280;70012;0.000;0.000;2024-01-10T08:10:13;101840.16;;;-8.79;74.46
80648;BME280;70012;0.000;0.000;2024-01-10T08:12:42;101847.28;;;-8.80;74.84
80648;BME280;70012;0.000;0.000;2024-01-10T08:15:08;101847.06;;;-8.77;74.98
80648;BME280;70012;0.000;0.000;2024-01-10T08:17:37;101848.03;;;-8.78;74.85
80648;BME280;70012;0.000;0.000;2024-01-10T08:20:08;101843.38;;;-8.74;74.54
80648;BME280;70012;0.000;0.000;2024-01-10T08:22:38;101831.34;;;-8.80;75.42
80648;BME280;70012;0.000;0.000;2024-01-10T08:25:05;101827.72;;;-8.79;74.74
80648;BME280;70012;0.000;0.000;2024-01-10T08:27:35;101850.25;;;-8.70;74.79
80648;BME280;70012;0.000;0.000;2024-01-10T08:30:05;101838.16;;;-8.76;74.60
80648;BME280;70012;0.000;0.000;2024-01-10T08:32:35;101830.31;;;-8.77;74.75
80648;BME280;70012;0.000;0.000;2024-01-10T08:35:04;101833.03;;;-8.79;74.85
80648;BME280;70012;0.000;0.000;2024-01-10T08:37:33;101839.88;;;-8.75;75.10
80648;BME280;70012;0.000;0.000;2024-01-10T08:40:00;101817.09;;;-8.79;74.81
80648;BME280;70012;0.000;0.000;2024-01-10T08:42:33;101806.69;;;-8.82;75.90
80648;BME280;70012;0.000;0.000;2024-01-10T08:45:00;101821.88;;;-8.70;77.10
80648;BME280;70012;0.000;0.000;2024-01-10T08:47:42;101833.75;;;-8.61;76.40
80648;BME280;70012;0.000;0.000;2024-01-10T08:50:10;101848.72;;;-8.45;76.47
80648;BME280;70012;0.000;0.000;2024-01-10T08:52:37;101853.78;;;-8.41;76.31
80648;BME280;70012;0.000;0.000;2024-01-10T08:55:05;101862.31;;;-8.36;76.92
80648;BME280;70012;0.000;0.000;2024-01-10T08:57:37;101840.66;;;-8.44;76.14
80648;BME280;70012;0.000;0.000;2024-01-10T09:00:05;101810.50;;;-8.57;76.88
80648;BME280;70012;0.000;0.000;2024-01-10T09:02:51;101835.53;;;-8.32;77.69
80648;BME280;70012;0.000;0.000;2024-01-10T09:05:20;101874.66;;;-8.06;78.72
80648;BME280;70012;0.000;0.000;2024-01-10T09:07:49;101814.13;;;-8.29;77.66
80648;BME280;70012;0.000;0.000;2024-01-10T09:10:16;101829.50;;;-8.20;77.22
80648;BME280;70012;0.000;0.000;2024-01-10T09:12:44;101851.13;;;-7.97;79.14
80648;BME280;70012;0.000;0.000;2024-01-10T09:15:13;101820.84;;;-8.09;78.29
80648;BME280;70012;0.000;0.000;2024-01-10T09:17:42;101828.81;;;-7.95;79.18
80648;BME280;70012;0.000;0.000;2024-01-10T09:20:10;101857.38;;;-7.69;78.43
80648;BME280;70012;0.000;0.000;2024-01-10T09:22:38;101858.47;;;-7.59;76.98
80648;BME280;70012;0.000;0.000;2024-01-10T09:25:05;101872.53;;;-7.43;76.91
80648;BME280;70012;0.000;0.000;2024-01-10T09:27:35;101849.34;;;-7.41;77.14
80648;BME280;70012;0.000;0.000;2024-01-10T09:30:05;101867.84;;;-7.25;77.80
80648;BME280;70012;0.000;0.000;2024-01-10T09:32:36;101852.16;;;-7.29;77.67
80648;BME280;70012;0.000;0.000;2024-01-10T09:35:04;101872.47;;;-7.14;78.14
80648;BME280;70012;0.000;0.000;2024-01-10T09:37:31;101826.13;;;-7.38;78.47
80648;BME280;70012;0.000;0.000;2024-01-10T09:39:58;101858.38;;;-7.16;78.57
80648;BME280;70012;0.000;0.000;2024-01-10T09:42:25;101854.56;;;-7.12;79.17
80648;BME280;70012;0.000;0.000;2024-01-10T09:44:54;101845.63;;;-7.11;80.25
80648;BME280;70012;0.000;0.000;2024-01-10T09:47:21;101823.41;;;-7.24;78.11
80648;BME280;70012;0.000;0.000;2024-01-10T09:49:48;101826.84;;;-7.22;78.76
80648;BME280;70012;0.000;0.000;2024-01-10T09:52:24;101866.09;;;-6.98;77.50
80648;BME280;70012;0.000;0.000;2024-01-10T09:54:55;101891.31;;;-6.77;80.49
80648;BME280;70012;0.000;0.000;2024-01-10T09:57:32;101861.25;;;-6.92;78.51
80648;BME280;70012;0.000;0.000;2024-01-10T10:00:01;101877.25;;;-6.79;77.89
80648;BME280;70012;0.000;0.000;2024-01-10T10:02:31;101871.72;;;-6.76;77.42
80648;BME280;70012;0.000;0.000;2024-01-10T10:05:03;101886.47;;;-6.57;77.69
80648;BME280;70012;0.000;0.000;2024-01-10T10:07:50;101885.41;;;-6.54;77.40
80648;BME280;70012;0.000;0.000;2024-01-10T10:10:20;101861.75;;;-6.59;77.43
80648;BME280;70012;0.000;0.000;2024-01-10T10:12:51;101878.81;;;-6.49;77.26
80648;BME280;70012;0.000;0.000;2024-01-10T10:15:24;101880.09;;;-6.41;77.17
80648;BME280;70012;0.000;0.000;2024-01-10T10:17:58;101877.97;;;-6.36;76.68
80648;BME280;70012;0.000;0.000;2024-01-10T10:20:27;101876.25;;;-6.37;77.43
80648;BME280;70012;0.000;0.000;2024-01-10T10:23:07;101875.41;;;-6.25;78.28
80648;BME280;70012;0.000;0.000;2024-01-10T10:25:42;101878.63;;;-6.20;78.47
80648;BME280;70012;0.000;0.000;2024-01-10T10:28:11;101867.97;;;-6.20;77.89
80648;BME280;70012;0.000;0.000;2024-01-10T10:30:55;101874.16;;;-6.06;79.67
80648;BME280;70012;0.000;0.000;2024-01-10T10:33:22;101877.47;;;-6.03;79.12
80648;BME280;70012;0.000;0.000;2024-01-10T10:35:49;101848.13;;;-6.16;80.41
80648;BME280;70012;0.000;0.000;2024-01-10T10:38:21;101853.78;;;-6.07;78.74
80648;BME280;70012;0.000;0.000;2024-01-10T10:40:49;101880.06;;;-5.90;77.37
80648;BME280;70012;0.000;0.000;2024-01-10T10:43:18;101855.75;;;-5.98;77.15
80648;BME280;70012;0.000;0.000;2024-01-10T10:45:49;101877.84;;;-5.83;77.46
80648;BME280;70012;0.000;0.000;2024-01-10T10:48:18;101857.25;;;-5.94;76.73
80648;BME280;70012;0.000;0.000;2024-01-10T10:50:59;101841.13;;;-5.92;76.77
80648;BME280;70012;0.000;0.000;2024-01-10T10:53:31;101859.81;;;-5.80;76.11
80648;BME280;70012;0.000;0.000;2024-01-10T10:56:00;101844.50;;;-5.78;76.08
80648;BME280;70012;0.000;0.000;2024-01-10T10:58:27;101859.03;;;-5.69;76.36
80648;BME280;70012;0.000;0.000;2024-01-10T11:00:55;101859.94;;;-5.57;75.76
80648;BME280;70012;0.000;0.000;2024-01-10T11:03:23;101875.53;;;-5.51;75.32
80648;BME280;70012;0.000;0.000;2024-01-10T11:05:51;101858.66;;;-5.51;75.05
80648;BME280;70012;0.000;0.000;2024-01-10T11:08:19;101867.38;;;-5.36;72.40
80648;BME280;70012;0.000;0.000;2024-01-10T11:10:49;101854.47;;;-5.42;71.54
80648;BME280;70012;0.000;0.000;2024-01-10T11:13:54;101859.47;;;-5.38;71.21
80648;BME280;70012;0.000;0.000;2024-01-10T11:25:17;101864.34;;;-5.19;71.47
80648;BME280;70012;0.000;0.000;2024-01-10T11:27:44;101853.03;;;-5.22;71.72
80648;BME280;70012;0.000;0.000;2024-01-10T11:33:22;101847.59;;;-5.09;70.82
80648;BME280;70012;0.000;0.000;2024-01-10T11:36:12;101852.28;;;-5.00;70.72
80648;BME280;70012;0.000;0.000;2024-01-10T11:38:47;101846.00;;;-4.88;69.61
80648;BME280;70012;0.000;0.000;2024-01-10T11:41:27;101847.47;;;-4.84;70.21
80648;BME280;70012;0.000;0.000;2024-01-10T11:46:42;101833.66;;;-4.77;68.61
80648;BME280;70012;0.000;0.000;2024-01-10T11:49:10;101855.25;;;-4.56;69.37
80648;BME280;70012;0.000;0.000;2024-01-10T11:51:43;101852.22;;;-4.52;67.37
80648;BME280;70012;0.000;0.000;2024-01-10T11:54:36;101848.19;;;-4.46;68.13
80648;BME280;70012;0.000;0.000;2024-01-10T11:57:08;101818.53;;;-4.54;68.46
80648;BME280;70012;0.000;0.000;2024-01-10T11:59:37;101821.59;;;-4.36;65.66
80648;BME280;70012;0.000;0.000;2024-01-10T12:02:04;101829.50;;;-4.35;66.46
80648;BME280;70012;0.000;0.000;2024-01-10T12:04:32;101836.69;;;-4.24;66.32
80648;BME280;70012;0.000;0.000;2024-01-10T12:07:16;101808.97;;;-4.34;66.02
80648;BME280;70012;0.000;0.000;2024-01-10T12:09:59;101815.41;;;-4.25;66.95
80648;BME280;70012;0.000;0.000;2024-01-10T12:12:27;101826.25;;;-4.15;66.84
80648;BME280;70012;0.000;0.000;2024-01-10T12:14:53;101817.97;;;-4.24;66.99
80648;BME280;70012;0.000;0.000;2024-01-10T12:17:20;101822.97;;;-4.19;66.96
80648;BME280;70012;0.000;0.000;2024-01-10T12:19:49;101831.47;;;-4.14;67.32
80648;BME280;70012;0.000;0.000;2024-01-10T12:22:20;101815.53;;;-4.15;66.94
80648;BME280;70012;0.000;0.000;2024-01-10T12:24:49;101815.53;;;-4.15;67.21
80648;BME280;70012;0.000;0.000;2024-01-10T12:27:19;101813.84;;;-4.16;67.11
80648;BME280;70012;0.000;0.000;2024-01-10T12:29:51;101819.66;;;-4.11;67.39
80648;BME280;70012;0.000;0.000;2024-01-10T12:32:20;101808.97;;;-4.11;66.81
80648;BME280;70012;0.000;0.000;2024-01-10T12:35:03;101805.09;;;-4.19;68.13
80648;BME280;70012;0.000;0.000;2024-01-10T12:37:31;101793.19;;;-4.14;67.88
80648;BME280;70012;0.000;0.000;2024-01-10T12:40:01;101799.00;;;-4.09;68.10
80648;BME280;70012;0.000;0.000;2024-01-10T12:42:36;101798.91;;;-3.96;68.31
80648;BME280;70012;0.000;0.000;2024-01-10T12:45:04;101809.94;;;-3.90;68.32
80648;BME280;70012;0.000;0.000;2024-01-10T12:47:34;101819.94;;;-3.80;68.32
80648;BME280;70012;0.000;0.000;2024-01-10T12:50:04;101810.94;;;-3.79;68.56
80648;BME280;70012;0.000;0.000;2024-01-10T12:52:31;101808.47;;;-3.71;67.26
80648;BME280;70012;0.000;0.000;2024-01-10T12:54:58;101802.41;;;-3.73;67.78
80648;BME280;70012;0.000;0.000;2024-01-10T12:57:25;101811.16;;;-3.60;67.34
80648;BME280;70012;0.000;0.000;2024-01-10T12:59:52;101789.97;;;-3.63;67.69
80648;BME280;70012;0.000;0.000;2024-01-10T13:02:19;101815.50;;;-3.47;66.99
80648;BME280;70012;0.000;0.000;2024-01-10T13:04:46;101803.69;;;-3.45;67.54
80648;BME280;70012;0.000;0.000;2024-01-10T13:07:13;101804.53;;;-3.44;67.42
80648;BME280;70012;0.000;0.000;2024-01-10T13:09:40;101792.31;;;-3.37;67.00
80648;BME280;70012;0.000;0.000;2024-01-10T13:12:07;101803.78;;;-3.35;67.41
80648;BME280;70012;0.000;0.000;2024-01-10T13:14:41;101790.16;;;-3.32;66.71
80648;BME280;70012;0.000;0.000;2024-01-10T13:17:08;101814.44;;;-3.12;66.86
80648;BME280;70012;0.000;0.000;2024-01-10T13:19:35;101816.13;;;-3.11;65.96
80648;BME280;70012;0.000;0.000;2024-01-10T13:22:03;101810.88;;;-3.13;65.01